sensor_id;sensor_type;location;lat;lon;timestamp;P1;durP1;ratioP1;P2;durP2;ratioP2
9108;SDS011;4590;51.462;6.692;2022-12-18T11:01:18;10.50;;;5.93;;
9108;SDS011;4590;51.462;6.692;2022-12-18T14:16:01;20.48;;;10.60;;
9108;SDS011;4590;51.462;6.692;2022-12-18T16:02:25;26.15;;;14.38;;
9108;SDS011;4590;51.462;6.692;2022-12-18T16:04:51;24.65;;;12.48;;
9108;SDS011;4590;51.462;6.692;2022-12-18T16:07:17;25.80;;;12.55;;
9108;SDS011;4590;51.462;6.692;2022-12-18T16:09:43;25.60;;;13.15;;
9108;SDS011;4590;51.462;6.692;2022-12-18T16:12:18;24.30;;;12.87;;
9108;SDS011;4590;51.462;6.692;2022-12-18T16:17:11;29.08;;;14.75;;
9108;SDS011;4590;51.462;6.692;2022-12-18T16:19:37;24.38;;;12.30;;
9108;SDS011;4590;51.462;6.692;2022-12-18T16:22:02;28.57;;;15.60;;
9108;SDS011;4590;51.462;6.692;2022-12-18T16:24:29;22.73;;;12.37;;
9108;SDS011;4590;51.462;6.692;2022-12-18T16:26:57;25.38;;;12.77;;
9108;SDS011;4590;51.462;6.692;2022-12-18T16:29:25;21.25;;;11.32;;
9108;SDS011;4590;51.462;6.692;2022-12-18T16:31:55;27.00;;;14.10;;
9108;SDS011;4590;51.462;6.692;2022-12-18T16:34:31;23.50;;;13.15;;
9108;SDS011;4590;51.462;6.692;2022-12-18T16:37:03;23.92;;;12.02;;
9108;SDS011;4590;51.462;6.692;2022-12-18T16:39:29;26.80;;;13.35;;
9108;SDS011;4590;51.462;6.692;2022-12-18T16:41:56;24.55;;;13.50;;
9108;SDS011;4590;51.462;6.692;2022-12-18T16:44:21;27.03;;;14.33;;
9108;SDS011;4590;51.462;6.692;2022-12-18T16:46:47;28.13;;;13.93;;
9108;SDS011;4590;51.462;6.692;2022-12-18T16:49:13;28.63;;;15.57;;
9108;SDS011;4590;51.462;6.692;2022-12-18T16:51:40;26.30;;;14.70;;
9108;SDS011;4590;51.462;6.692;2022-12-18T16:54:05;22.17;;;12.37;;
9108;SDS011;4590;51.462;6.692;2022-12-18T16:56:32;29.67;;;14.65;;
9108;SDS011;4590;51.462;6.692;2022-12-18T16:59:00;23.73;;;13.07;;
9108;SDS011;4590;51.462;6.692;2022-12-18T17:03:54;27.00;;;13.18;;
9108;SDS011;4590;51.462;6.692;2022-12-18T17:06:21;28.17;;;14.15;;
9108;SDS011;4590;51.462;6.692;2022-12-18T17:08:47;28.73;;;15.23;;
9108;SDS011;4590;51.462;6.692;2022-12-18T17:11:13;32.55;;;15.90;;
9108;SDS011;4590;51.462;6.692;2022-12-18T17:13:38;31.57;;;14.97;;
9108;SDS011;4590;51.462;6.692;2022-12-18T17:16:12;28.92;;;15.45;;
9108;SDS011;4590;51.462;6.692;2022-12-18T17:21:04;28.27;;;14.87;;
9108;SDS011;4590;51.462;6.692;2022-12-18T17:23:31;26.25;;;13.27;;
9108;SDS011;4590;51.462;6.692;2022-12-18T17:25:56;28.40;;;14.17;;
9108;SDS011;4590;51.462;6.692;2022-12-18T17:28:23;29.33;;;14.68;;
9108;SDS011;4590;51.462;6.692;2022-12-18T17:30:50;36.40;;;18.38;;
9108;SDS011;4590;51.462;6.692;2022-12-18T17:33:20;31.38;;;16.73;;
9108;SDS011;4590;51.462;6.692;2022-12-18T17:35:46;32.95;;;17.65;;
9108;SDS011;4590;51.462;6.692;2022-12-18T17:38:12;30.88;;;16.10;;
9108;SDS011;4590;51.462;6.692;2022-12-18T17:40:37;31.20;;;16.93;;
9108;SDS011;4590;51.462;6.692;2022-12-18T17:43:04;33.78;;;16.88;;
9108;SDS011;4590;51.462;6.692;2022-12-18T17:45:30;27.25;;;13.93;;
9108;SDS011;4590;51.462;6.692;2022-12-18T17:47:58;30.48;;;15.98;;
9108;SDS011;4590;51.462;6.692;2022-12-18T17:50:24;33.83;;;18.07;;
9108;SDS011;4590;51.462;6.692;2022-12-18T17:52:49;26.07;;;13.67;;
9108;SDS011;4590;51.462;6.692;2022-12-18T17:55:19;35.45;;;17.30;;
9108;SDS011;4590;51.462;6.692;2022-12-18T17:57:46;29.58;;;16.08;;
9108;SDS011;4590;51.462;6.692;2022-12-18T18:00:12;32.20;;;17.20;;
9108;SDS011;4590;51.462;6.692;2022-12-18T18:02:39;31.65;;;16.98;;
9108;SDS011;4590;51.462;6.692;2022-12-18T18:05:04;30.77;;;16.00;;
9108;SDS011;4590;51.462;6.692;2022-12-18T18:07:30;35.20;;;17.90;;
9108;SDS011;4590;51.462;6.692;2022-12-18T18:09:55;40.03;;;18.47;;
9108;SDS011;4590;51.462;6.692;2022-12-18T18:12:22;30.70;;;15.67;;
9108;SDS011;4590;51.462;6.692;2022-12-18T18:15:05;31.73;;;16.00;;
9108;SDS011;4590;51.462;6.692;2022-12-18T18:17:31;37.90;;;17.92;;
9108;SDS011;4590;51.462;6.692;2022-12-18T18:19:57;33.57;;;18.27;;
9108;SDS011;4590;51.462;6.692;2022-12-18T18:22:22;31.58;;;15.65;;
9108;SDS011;4590;51.462;6.692;2022-12-18T18:24:48;31.73;;;16.30;;
9108;SDS011;4590;51.462;6.692;2022-12-18T18:27:13;34.07;;;17.87;;
9108;SDS011;4590;51.462;6.692;2022-12-18T18:29:39;34.87;;;18.20;;
9108;SDS011;4590;51.462;6.692;2022-12-18T18:32:06;32.42;;;17.10;;
9108;SDS011;4590;51.462;6.692;2022-12-18T18:34:32;33.00;;;17.50;;
9108;SDS011;4590;51.462;6.692;2022-12-18T18:36:57;36.07;;;17.67;;
9108;SDS011;4590;51.462;6.692;2022-12-18T18:39:27;33.53;;;17.48;;
9108;SDS011;4590;51.462;6.692;2022-12-18T18:41:52;31.17;;;15.00;;
9108;SDS011;4590;51.462;6.692;2022-12-18T18:44:18;38.73;;;19.17;;
9108;SDS011;4590;51.462;6.692;2022-12-18T18:46:45;35.58;;;17.42;;
9108;SDS011;4590;51.462;6.692;2022-12-18T18:49:10;34.35;;;17.58;;
9108;SDS011;4590;51.462;6.692;2022-12-18T18:51:38;53.38;;;25.63;;
9108;SDS011;4590;51.462;6.692;2022-12-18T18:54:05;37.80;;;20.13;;
9108;SDS011;4590;51.462;6.692;2022-12-18T18:56:31;34.83;;;17.45;;
9108;SDS011;4590;51.462;6.692;2022-12-18T18:58:57;38.67;;;19.13;;
9108;SDS011;4590;51.462;6.692;2022-12-18T19:01:23;36.85;;;17.88;;
9108;SDS011;4590;51.462;6.692;2022-12-18T19:03:49;36.60;;;17.80;;
9108;SDS011;4590;51.462;6.692;2022-12-18T19:06:17;35.05;;;18.77;;
9108;SDS011;4590;51.462;6.692;2022-12-18T19:08:49;37.53;;;18.00;;
9108;SDS011;4590;51.462;6.692;2022-12-18T19:11:15;35.95;;;18.63;;
9108;SDS011;4590;51.462;6.692;2022-12-18T19:14:01;37.88;;;15.65;;
9108;SDS011;4590;51.462;6.692;2022-12-18T19:16:29;35.40;;;15.82;;
9108;SDS011;4590;51.462;6.692;2022-12-18T19:18:55;40.70;;;18.73;;
9108;SDS011;4590;51.462;6.692;2022-12-18T19:21:24;35.53;;;17.30;;
9108;SDS011;4590;51.462;6.692;2022-12-18T19:23:50;34.80;;;17.83;;
9108;SDS011;4590;51.462;6.692;2022-12-18T19:26:16;42.10;;;19.70;;
9108;SDS011;4590;51.462;6.692;2022-12-18T19:28:42;34.13;;;16.88;;
9108;SDS011;4590;51.462;6.692;2022-12-18T19:31:09;40.95;;;18.88;;
9108;SDS011;4590;51.462;6.692;2022-12-18T19:33:38;38.08;;;18.10;;
9108;SDS011;4590;51.462;6.692;2022-12-18T19:38:43;38.70;;;19.88;;
9108;SDS011;4590;51.462;6.692;2022-12-18T19:41:11;40.72;;;20.15;;
9108;SDS011;4590;51.462;6.692;2022-12-18T19:46:04;40.38;;;17.33;;
9108;SDS011;4590;51.462;6.692;2022-12-18T19:48:34;41.35;;;19.70;;
9108;SDS011;4590;51.462;6.692;2022-12-18T19:51:06;37.30;;;18.73;;
9108;SDS011;4590;51.462;6.692;2022-12-18T19:53:32;35.97;;;17.67;;
9108;SDS011;4590;51.462;6.692;2022-12-18T19:55:58;39.10;;;19.07;;
9108;SDS011;4590;51.462;6.692;2022-12-18T19:58:28;41.15;;;18.23;;
9108;SDS011;4590;51.462;6.692;2022-12-18T20:00:53;32.10;;;16.93;;
9108;SDS011;4590;51.462;6.692;2022-12-18T20:03:18;37.80;;;18.13;;
9108;SDS011;4590;51.462;6.692;2022-12-18T20:05:44;34.83;;;16.10;;
9108;SDS011;4590;51.462;6.692;2022-12-18T20:08:10;37.33;;;18.30;;
9108;SDS011;4590;51.462;6.692;2022-12-18T20:10:35;39.50;;;19.42;;
9108;SDS011;4590;51.462;6.692;2022-12-18T20:13:01;34.93;;;17.83;;
9108;SDS011;4590;51.462;6.692;2022-12-18T20:15:26;37.43;;;17.43;;
9108;SDS011;4590;51.462;6.692;2022-12-18T20:17:51;39.57;;;18.73;;
9108;SDS011;4590;51.462;6.692;2022-12-18T20:20:17;37.90;;;18.63;;
9108;SDS011;4590;51.462;6.692;2022-12-18T20:22:44;42.15;;;19.33;;
9108;SDS011;4590;51.462;6.692;2022-12-18T20:25:10;41.00;;;19.75;;
9108;SDS011;4590;51.462;6.692;2022-12-18T20:27:35;40.27;;;20.37;;
9108;SDS011;4590;51.462;6.692;2022-12-18T20:30:00;34.80;;;17.17;;
9108;SDS011;4590;51.462;6.692;2022-12-18T20:32:27;39.17;;;19.13;;
9108;SDS011;4590;51.462;6.692;2022-12-18T20:34:52;34.10;;;16.10;;
9108;SDS011;4590;51.462;6.692;2022-12-18T20:37:17;34.93;;;16.93;;
9108;SDS011;4590;51.462;6.692;2022-12-18T20:39:44;38.63;;;18.17;;
9108;SDS011;4590;51.462;6.692;2022-12-18T20:44:36;33.27;;;15.70;;
9108;SDS011;4590;51.462;6.692;2022-12-18T20:47:02;39.13;;;19.17;;
9108;SDS011;4590;51.462;6.692;2022-12-18T20:49:28;39.28;;;19.50;;
9108;SDS011;4590;51.462;6.692;2022-12-18T20:51:54;40.22;;;19.10;;
9108;SDS011;4590;51.462;6.692;2022-12-18T20:54:21;39.20;;;19.55;;
9108;SDS011;4590;51.462;6.692;2022-12-18T20:56:49;37.42;;;17.27;;
9108;SDS011;4590;51.462;6.692;2022-12-18T20:59:14;42.53;;;22.03;;
9108;SDS011;4590;51.462;6.692;2022-12-18T21:01:40;39.90;;;19.95;;
9108;SDS011;4590;51.462;6.692;2022-12-18T21:04:07;38.42;;;17.52;;
9108;SDS011;4590;51.462;6.692;2022-12-18T21:06:33;35.90;;;18.00;;
9108;SDS011;4590;51.462;6.692;2022-12-18T21:08:59;39.23;;;18.50;;
9108;SDS011;4590;51.462;6.692;2022-12-18T21:11:25;40.07;;;18.80;;
9108;SDS011;4590;51.462;6.692;2022-12-18T21:19:22;34.03;;;15.40;;
9108;SDS011;4590;51.462;6.692;2022-12-18T21:21:50;37.25;;;18.98;;
9108;SDS011;4590;51.462;6.692;2022-12-18T21:26:41;38.75;;;19.00;;
9108;SDS011;4590;51.462;6.692;2022-12-18T21:29:09;41.33;;;19.83;;
9108;SDS011;4590;51.462;6.692;2022-12-18T21:31:36;38.67;;;17.00;;
9108;SDS011;4590;51.462;6.692;2022-12-18T21:34:03;38.13;;;19.08;;
